Barstow Daggett Airport
KDAG : now visible

Airfield :











YOU CAN JOIN US ON...

 
LOGIN :

Register | Disclaimer

   EN    FR    IT 

 









Legend :    VFR   Marginal VFR   IFR   Intensive IFR   Very Intensive IFR
Visi :
Ceiling :
>= 8 km
>= 3000ft
5 to 8 km
1000 to 3000 ft
1500m to 5 km
500 to 1000 ft
800 to 1500m
200 to 500 ft
< 800m
< 200 ft
Symbols :   Thunderstorms  Fog  Heavy snow  Heavy precipitations  Wind > 20 kt






- Airport Elevation : 1930 ft


KDAG - Barstow Daggett

CURRENT METAR :
  • 150550Z AUTO 26026G35KT 10SM CLR 11/01 A2985 RMK AO2 PK WND 26038/0454 SLP095 T01110006 10167 20111 53004

EXPIRED METARs :
  • 150450Z AUTO 26026G33KT 10SM CLR 12/01 A2984 RMK AO2 PK WND 26037/0416 SLP094 T01170011
  • 150350Z AUTO 26024G35KT 10SM CLR 13/02 A2983 RMK AO2 PK WND 27036/0337 SLP089 T01280022

TAF KDAG
Valid from the 15 at 06:00 until the 16 at 06:00 UTC


150520Z 1506/1606 26025G35KT P6SM FEW050 BKN250
FM152000 26012KT P6SM BKN250
FM160100 32008KT P6SM SKC



MET'MAP, your aeronautical weather chart ! - Copyright ORBIFLY December 2007 - Disclaimer

ORBIFLY MET'MAP TEAM :

Programming & Development : Alexandra Zaïnal
Concept & original design : Baudouin d'Aumeries
Assistance for programming : Marc-Olivier Méhu
Technical & hardware support : Manuel Goepfert

Contact : metmap@orbifly.com




SOURCES & CREDITS :

   NOAA       Earth
Advisory